createdAt,value
2023-05-08T00:00:22.434Z,2018.00
2023-05-08T00:01:22.430Z,2015.00
2023-05-08T00:02:22.587Z,2018.00
2023-05-08T00:03:22.499Z,2013.00
2023-05-08T00:04:22.467Z,2006.00
2023-05-08T00:05:22.501Z,2009.00
2023-05-08T00:06:22.405Z,2009.00
2023-05-08T00:07:22.424Z,2000.00
2023-05-08T00:08:22.399Z,2002.00
2023-05-08T00:09:22.395Z,1996.00
2023-05-08T00:10:22.390Z,1997.00
2023-05-08T00:11:22.368Z,1998.00
2023-05-08T00:12:22.375Z,1998.00
2023-05-08T00:13:22.431Z,2004.00
2023-05-08T00:14:22.377Z,2000.00
2023-05-08T00:15:22.332Z,1987.00
2023-05-08T00:16:22.392Z,1990.00
2023-05-08T00:17:22.390Z,1977.00
2023-05-08T00:18:22.326Z,1971.00
2023-05-08T00:19:22.330Z,1991.00
2023-05-08T00:20:22.296Z,1967.00
2023-05-08T00:21:22.324Z,1981.00
2023-05-08T00:22:22.307Z,1981.00
2023-05-08T00:23:22.372Z,1971.00
2023-05-08T00:24:22.286Z,1952.00
2023-05-08T00:25:22.265Z,1953.00
2023-05-08T00:26:22.265Z,1951.00
2023-05-08T00:27:22.263Z,1952.00
2023-05-08T00:28:22.342Z,1964.00
2023-05-08T00:29:22.247Z,1968.00
2023-05-08T00:30:22.233Z,1961.00
2023-05-08T00:31:22.235Z,1979.00
2023-05-08T00:32:22.325Z,1977.00
2023-05-08T00:33:22.246Z,1986.00
2023-05-08T00:34:22.225Z,1962.00
2023-05-08T00:35:22.224Z,1992.00
2023-05-08T00:36:22.192Z,1966.00
2023-05-08T00:37:22.234Z,1969.00
2023-05-08T00:38:22.195Z,1969.00
2023-05-08T00:39:22.195Z,1961.00
2023-05-08T00:40:22.169Z,1970.00
2023-05-08T00:41:22.182Z,1955.00
2023-05-08T00:42:22.185Z,1991.00
2023-05-08T00:43:22.166Z,1963.00
2023-05-08T00:44:22.180Z,1982.00
2023-05-08T00:45:22.180Z,1965.00
2023-05-08T00:46:22.225Z,1970.00
2023-05-08T00:47:22.227Z,1985.00
2023-05-08T00:48:22.134Z,1974.00
2023-05-08T00:49:22.144Z,1982.00
2023-05-08T00:50:22.197Z,1983.00
2023-05-08T00:51:22.092Z,1983.00
2023-05-08T00:52:22.103Z,1964.00
2023-05-08T00:53:22.099Z,1972.00
2023-05-08T00:54:22.111Z,1969.00
2023-05-08T00:55:22.066Z,1967.00
2023-05-08T00:56:22.085Z,1992.00
2023-05-08T00:57:22.083Z,1996.00
2023-05-08T00:58:22.065Z,1981.00
2023-05-08T00:59:22.057Z,1971.00
2023-05-08T01:00:22.030Z,1984.00
2023-05-08T01:01:22.083Z,1976.00
2023-05-08T01:02:22.174Z,1978.00
2023-05-08T01:03:22.116Z,1983.00
2023-05-08T01:04:22.048Z,2005.00
2023-05-08T01:05:22.007Z,2021.00
2023-05-08T01:06:22.001Z,2002.00
2023-05-08T01:07:22.030Z,2020.00
2023-05-08T01:08:21.981Z,2019.00
2023-05-08T01:09:21.983Z,2006.00
2023-05-08T01:10:21.986Z,2023.00
2023-05-08T01:11:21.973Z,2014.00
2023-05-08T01:12:22.080Z,1994.00
2023-05-08T01:13:21.975Z,2016.00
2023-05-08T01:14:21.963Z,2015.00
2023-05-08T01:15:21.958Z,2026.00
2023-05-08T01:16:21.968Z,2026.00
2023-05-08T01:17:21.993Z,2015.00
2023-05-08T01:18:21.922Z,2031.00
2023-05-08T01:19:21.917Z,2027.00
2023-05-08T01:20:21.907Z,2031.00
2023-05-08T01:21:21.915Z,2014.00
2023-05-08T01:22:21.896Z,2029.00
2023-05-08T01:23:21.890Z,2032.00
2023-05-08T01:24:21.885Z,2025.00
2023-05-08T01:25:21.884Z,2040.00
2023-05-08T01:26:21.889Z,2038.00
2023-05-08T01:27:21.924Z,2039.00
2023-05-08T01:28:21.881Z,2044.00
2023-05-08T01:29:21.880Z,2035.00
2023-05-08T01:30:21.883Z,2034.00
2023-05-08T01:31:21.879Z,2043.00
2023-05-08T01:32:21.892Z,2045.00
2023-05-08T01:33:22.035Z,2072.00
2023-05-08T01:34:21.980Z,2034.00
2023-05-08T01:35:21.839Z,2033.00
2023-05-08T01:36:21.870Z,2041.00
2023-05-08T01:37:21.832Z,2040.00
2023-05-08T01:38:21.828Z,2046.00
2023-05-08T01:39:21.837Z,2052.00
2023-05-08T01:40:21.829Z,2057.00
2023-05-08T01:41:21.874Z,2058.00
2023-05-08T01:42:21.847Z,2054.00
2023-05-08T01:43:21.852Z,2039.00
2023-05-08T01:44:21.838Z,2055.00
2023-05-08T01:45:21.839Z,2051.00
2023-05-08T01:46:21.885Z,2047.00
2023-05-08T01:47:21.838Z,2064.00
2023-05-08T01:48:21.835Z,2079.00
2023-05-08T01:49:21.824Z,2060.00
2023-05-08T01:50:21.820Z,2056.00
2023-05-08T01:51:21.835Z,2047.00
2023-05-08T01:52:21.797Z,2059.00
2023-05-08T01:53:21.812Z,2083.00
2023-05-08T01:54:21.807Z,2079.00
2023-05-08T01:55:21.887Z,2060.00
2023-05-08T01:56:21.803Z,2076.00
2023-05-08T01:57:21.806Z,2068.00
2023-05-08T01:58:21.791Z,2070.00
2023-05-08T01:59:21.814Z,2062.00
2023-05-08T02:00:21.815Z,2072.00
2023-05-08T02:01:21.834Z,2072.00
2023-05-08T02:02:21.860Z,2084.00
2023-05-08T02:03:21.844Z,2063.00
2023-05-08T02:04:21.883Z,2062.00
2023-05-08T02:05:21.793Z,2068.00
2023-05-08T02:06:21.805Z,2064.00
2023-05-08T02:07:21.790Z,2065.00
2023-05-08T02:08:21.783Z,2070.00
2023-05-08T02:09:21.788Z,2096.00
2023-05-08T02:10:21.802Z,2129.00
2023-05-08T02:11:21.789Z,2147.00
2023-05-08T02:12:21.780Z,2173.00
2023-05-08T02:13:21.903Z,2191.00
2023-05-08T02:14:21.787Z,2185.00
2023-05-08T02:15:21.804Z,2203.00
2023-05-08T02:16:21.810Z,2202.00
2023-05-08T02:17:21.800Z,2215.00
2023-05-08T02:18:21.853Z,2242.00
2023-05-08T02:19:21.760Z,2248.00
2023-05-08T02:20:21.786Z,2249.00
2023-05-08T02:21:21.782Z,2249.00
2023-05-08T02:22:21.814Z,2253.00
2023-05-08T02:23:21.792Z,2273.00
2023-05-08T02:24:21.814Z,2264.00
2023-05-08T02:25:21.784Z,2276.00
2023-05-08T02:26:21.807Z,2264.00
2023-05-08T02:27:21.782Z,2288.00
2023-05-08T02:28:21.799Z,2287.00
2023-05-08T02:29:21.809Z,2279.00
2023-05-08T02:30:21.808Z,2278.00
2023-05-08T02:31:21.829Z,2297.00
2023-05-08T02:32:21.909Z,2307.00
2023-05-08T02:33:21.812Z,2319.00
2023-05-08T02:34:21.806Z,2312.00
2023-05-08T02:35:21.822Z,2327.00
2023-05-08T02:36:21.823Z,2323.00
2023-05-08T02:37:21.808Z,2328.00
2023-05-08T02:38:21.822Z,2335.00
2023-05-08T02:39:21.824Z,2348.00
2023-05-08T02:40:21.885Z,2354.00
2023-05-08T02:41:21.811Z,2355.00
2023-05-08T02:42:21.804Z,2355.00
2023-05-08T02:43:21.786Z,2351.00
2023-05-08T02:44:21.808Z,2357.00
2023-05-08T02:45:21.803Z,2354.00
2023-05-08T02:46:21.804Z,2356.00
2023-05-08T02:47:21.802Z,2327.00
2023-05-08T02:48:21.781Z,2289.00
2023-05-08T02:49:21.786Z,2286.00
2023-05-08T02:50:21.806Z,2270.00
2023-05-08T02:51:21.789Z,2255.00
2023-05-08T02:52:21.766Z,2242.00
2023-05-08T02:53:21.782Z,2239.00
2023-05-08T02:54:21.793Z,2252.00
2023-05-08T02:55:21.779Z,2264.00
2023-05-08T02:56:21.778Z,2276.00
2023-05-08T02:57:21.761Z,2261.00
2023-05-08T02:58:21.768Z,2268.00
2023-05-08T02:59:21.794Z,2272.00
2023-05-08T03:00:21.779Z,2277.00
2023-05-08T03:01:21.878Z,2239.00
2023-05-08T03:02:21.875Z,2234.00
2023-05-08T03:03:21.846Z,2215.00
2023-05-08T03:04:21.769Z,2189.00
2023-05-08T03:05:21.773Z,2193.00
2023-05-08T03:06:21.752Z,2179.00
2023-05-08T03:07:21.768Z,2146.00
2023-05-08T03:08:21.789Z,2151.00
2023-05-08T03:09:21.765Z,2140.00
2023-05-08T03:10:21.817Z,2131.00
2023-05-08T03:11:21.812Z,2111.00
2023-05-08T03:12:21.778Z,2100.00
2023-05-08T03:13:21.860Z,2104.00
2023-05-08T03:14:21.776Z,2077.00
2023-05-08T03:15:21.770Z,2088.00
2023-05-08T03:16:21.824Z,2088.00
2023-05-08T03:17:21.847Z,2079.00
2023-05-08T03:18:21.781Z,2094.00
2023-05-08T03:19:23.160Z,2091.00
2023-05-08T03:20:21.769Z,2065.00
2023-05-08T03:21:21.784Z,2087.00
2023-05-08T03:22:21.788Z,2072.00
2023-05-08T03:23:21.782Z,2058.00
2023-05-08T03:24:21.854Z,2064.00
2023-05-08T03:25:21.779Z,2054.00
2023-05-08T03:26:21.770Z,2057.00
2023-05-08T03:27:21.773Z,2050.00
2023-05-08T03:28:21.785Z,2054.00
2023-05-08T03:29:21.763Z,2036.00
2023-05-08T03:30:21.780Z,2036.00
2023-05-08T03:31:21.821Z,2027.00
2023-05-08T03:32:21.789Z,2015.00
2023-05-08T03:33:21.788Z,2022.00
2023-05-08T03:34:21.792Z,2030.00
2023-05-08T03:35:21.800Z,2006.00
2023-05-08T03:36:21.796Z,2017.00
2023-05-08T03:37:21.782Z,2013.00
2023-05-08T03:38:21.785Z,2009.00
2023-05-08T03:39:21.809Z,2023.00
2023-05-08T03:40:21.812Z,2016.00
2023-05-08T03:41:21.810Z,2028.00
2023-05-08T03:42:21.815Z,1998.00
2023-05-08T03:43:21.795Z,1989.00
2023-05-08T03:44:21.812Z,1998.00
2023-05-08T03:45:21.820Z,2004.00
2023-05-08T03:46:21.924Z,2003.00
2023-05-08T03:47:21.868Z,1996.00
2023-05-08T03:48:21.838Z,1987.00
2023-05-08T03:49:21.800Z,1974.00
2023-05-08T03:50:21.784Z,1984.00
2023-05-08T03:51:21.780Z,1958.00
2023-05-08T03:52:21.809Z,1950.00
2023-05-08T03:53:21.797Z,1956.00
2023-05-08T03:54:21.775Z,1942.00
2023-05-08T03:55:21.792Z,1955.00
2023-05-08T03:56:22.710Z,1944.00
2023-05-08T03:57:21.778Z,1957.00
2023-05-08T03:58:21.800Z,1951.00
2023-05-08T03:59:21.799Z,1969.00
2023-05-08T04:00:21.796Z,1965.00
2023-05-08T04:01:21.779Z,1974.00
2023-05-08T04:02:22.018Z,1948.00
2023-05-08T04:03:21.846Z,1955.00
2023-05-08T04:04:21.833Z,1953.00
2023-05-08T04:05:21.810Z,1939.00
2023-05-08T04:06:21.806Z,1944.00
2023-05-08T04:07:21.796Z,1963.00
2023-05-08T04:08:21.817Z,1944.00
2023-05-08T04:09:21.893Z,1951.00
2023-05-08T04:10:21.808Z,1948.00
2023-05-08T04:11:21.825Z,1953.00
2023-05-08T04:12:21.831Z,1937.00
2023-05-08T04:13:21.887Z,1937.00
2023-05-08T04:14:21.842Z,1942.00
2023-05-08T04:15:21.855Z,1911.00
2023-05-08T04:16:21.882Z,1914.00
2023-05-08T04:17:21.888Z,1890.00
2023-05-08T04:18:21.856Z,1898.00
2023-05-08T04:19:21.861Z,1882.00
2023-05-08T04:20:21.915Z,1892.00
2023-05-08T04:21:21.875Z,1891.00
2023-05-08T04:22:21.908Z,1909.00
2023-05-08T04:23:21.914Z,1910.00
2023-05-08T04:24:21.899Z,1899.00
2023-05-08T04:25:21.913Z,1901.00
2023-05-08T04:26:21.900Z,1902.00
2023-05-08T04:27:21.921Z,1906.00
2023-05-08T04:28:21.902Z,1895.00
2023-05-08T04:29:21.917Z,1900.00
2023-05-08T04:30:21.924Z,1873.00
2023-05-08T04:31:22.063Z,1871.00
2023-05-08T04:32:21.952Z,1859.00
2023-05-08T04:33:21.994Z,1884.00
2023-05-08T04:34:21.943Z,1883.00
2023-05-08T04:35:21.936Z,1881.00
2023-05-08T04:36:21.932Z,1879.00
2023-05-08T04:37:21.948Z,1902.00
2023-05-08T04:38:21.948Z,1879.00
2023-05-08T04:39:21.957Z,1869.00
2023-05-08T04:40:21.963Z,1875.00
2023-05-08T04:41:21.966Z,1882.00
2023-05-08T04:42:21.965Z,1865.00
2023-05-08T04:43:21.962Z,1857.00
2023-05-08T04:44:21.956Z,1878.00
2023-05-08T04:45:21.984Z,1855.00
2023-05-08T04:46:22.143Z,1863.00
2023-05-08T04:47:22.058Z,1856.00
2023-05-08T04:48:21.963Z,1876.00
2023-05-08T04:49:21.973Z,1863.00
2023-05-08T04:50:21.981Z,1868.00
2023-05-08T04:51:21.980Z,1869.00
2023-05-08T04:52:21.984Z,1864.00
2023-05-08T04:53:22.072Z,1860.00
2023-05-08T04:54:21.970Z,1847.00
2023-05-08T04:55:21.972Z,1849.00
2023-05-08T04:56:21.973Z,1860.00
2023-05-08T04:57:22.000Z,1839.00
2023-05-08T04:58:22.056Z,1856.00
2023-05-08T04:59:22.018Z,1845.00
2023-05-08T05:00:21.996Z,1854.00
2023-05-08T05:01:22.062Z,1858.00
2023-05-08T05:02:22.059Z,1852.00
2023-05-08T05:03:22.050Z,1853.00
2023-05-08T05:04:22.031Z,1851.00
2023-05-08T05:05:22.057Z,1851.00
2023-05-08T05:06:22.053Z,1873.00
2023-05-08T05:07:22.048Z,1865.00
2023-05-08T05:08:22.068Z,1877.00
2023-05-08T05:09:22.078Z,1851.00
2023-05-08T05:10:22.051Z,1853.00
2023-05-08T05:11:22.070Z,1853.00
2023-05-08T05:12:22.088Z,1856.00
2023-05-08T05:13:22.129Z,1867.00
2023-05-08T05:14:22.080Z,1851.00
2023-05-08T05:15:22.194Z,1851.00
2023-05-08T05:16:22.137Z,1852.00
2023-05-08T05:17:22.082Z,1856.00
2023-05-08T05:18:22.081Z,1876.00
2023-05-08T05:19:22.080Z,1856.00
2023-05-08T05:20:22.073Z,1884.00
2023-05-08T05:21:22.095Z,1846.00
2023-05-08T05:22:22.084Z,1865.00
2023-05-08T05:23:22.093Z,1882.00
2023-05-08T05:24:22.110Z,1878.00
2023-05-08T05:25:22.100Z,1872.00
2023-05-08T05:26:22.112Z,1891.00
2023-05-08T05:27:22.100Z,1926.00
2023-05-08T05:28:22.122Z,1916.00
2023-05-08T05:29:22.120Z,1900.00
2023-05-08T05:30:22.118Z,1927.00
2023-05-08T05:31:22.731Z,2031.00
2023-05-08T05:32:22.283Z,2068.00
2023-05-08T05:33:22.138Z,2101.00
2023-05-08T05:34:22.279Z,2148.00
2023-05-08T05:35:23.054Z,2167.00
2023-05-08T05:36:22.109Z,2176.00
2023-05-08T05:37:22.102Z,2220.00
2023-05-08T05:38:22.090Z,2269.00
2023-05-08T05:39:22.094Z,2329.00
2023-05-08T05:40:22.079Z,2344.00
2023-05-08T05:41:22.070Z,2384.00
2023-05-08T05:42:22.095Z,2484.00
2023-05-08T05:43:22.061Z,2533.00
2023-05-08T05:44:22.052Z,2564.00
2023-05-08T05:45:22.036Z,2600.00
2023-05-08T05:46:22.041Z,2640.00
2023-05-08T05:47:22.039Z,2669.00
2023-05-08T05:48:22.006Z,2676.00
2023-05-08T05:49:22.015Z,2743.00
2023-05-08T05:50:22.061Z,2731.00
2023-05-08T05:51:21.983Z,2732.00
2023-05-08T05:52:21.976Z,2792.00
2023-05-08T05:53:21.975Z,2835.00
2023-05-08T05:54:21.981Z,2847.00
2023-05-08T05:55:21.986Z,2874.00
2023-05-08T05:56:21.948Z,2854.00
2023-05-08T05:57:21.965Z,2872.00
2023-05-08T05:58:21.950Z,2910.00
2023-05-08T05:59:21.927Z,2939.00
2023-05-08T06:00:21.940Z,2884.00
2023-05-08T06:01:21.925Z,2786.00
2023-05-08T06:02:22.022Z,2688.00
2023-05-08T06:03:22.168Z,2591.00
2023-05-08T06:04:21.968Z,2548.00
2023-05-08T06:05:21.900Z,2539.00
2023-05-08T06:06:21.904Z,2508.00
2023-05-08T06:07:21.905Z,2426.00
2023-05-08T06:08:21.886Z,2360.00
2023-05-08T06:09:21.878Z,2398.00
2023-05-08T06:10:21.879Z,2403.00
2023-05-08T06:11:21.871Z,2359.00
2023-05-08T06:12:21.854Z,2310.00
2023-05-08T06:13:21.938Z,2332.00
2023-05-08T06:14:21.838Z,2287.00
2023-05-08T06:15:21.817Z,2273.00
2023-05-08T06:16:21.836Z,2239.00
2023-05-08T06:17:21.838Z,2212.00
2023-05-08T06:18:21.796Z,2232.00
2023-05-08T06:19:21.797Z,2212.00
2023-05-08T06:20:21.817Z,2162.00
2023-05-08T06:21:21.786Z,2139.00
2023-05-08T06:22:21.844Z,2143.00
2023-05-08T06:23:21.764Z,2163.00
2023-05-08T06:24:21.796Z,2185.00
2023-05-08T06:25:21.794Z,2235.00
2023-05-08T06:26:23.409Z,2288.00
2023-05-08T06:27:21.735Z,2331.00
2023-05-08T06:28:21.734Z,2359.00
2023-05-08T06:29:21.724Z,2395.00
2023-05-08T06:30:21.719Z,2440.00
2023-05-08T06:31:21.764Z,2516.00
2023-05-08T06:32:21.739Z,2571.00
2023-05-08T06:33:21.700Z,2569.00
2023-05-08T06:34:21.717Z,2623.00
2023-05-08T06:35:21.772Z,2652.00
2023-05-08T06:36:21.801Z,2668.00
2023-05-08T06:37:21.847Z,2769.00
2023-05-08T06:38:21.898Z,2781.00
2023-05-08T06:39:21.976Z,2819.00
2023-05-08T06:40:22.019Z,2809.00
2023-05-08T06:41:22.083Z,2839.00
2023-05-08T06:42:22.129Z,2865.00
2023-05-08T06:43:22.192Z,2888.00
2023-05-08T06:44:22.264Z,2895.00
2023-05-08T06:45:22.449Z,2924.00
2023-05-08T06:46:22.338Z,2971.00
2023-05-08T06:47:22.396Z,2962.00
2023-05-08T06:48:22.419Z,2983.00
2023-05-08T06:49:22.426Z,2977.00
2023-05-08T06:50:22.519Z,3010.00
2023-05-08T06:51:22.510Z,3026.00
2023-05-08T06:52:22.549Z,3054.00
2023-05-08T06:53:22.568Z,3076.00
2023-05-08T06:54:22.675Z,3092.00
2023-05-08T06:55:22.784Z,3108.00
2023-05-08T06:56:22.697Z,3123.00
2023-05-08T06:57:22.704Z,3129.00
2023-05-08T06:58:22.730Z,3140.00
2023-05-08T06:59:22.761Z,3161.00
2023-05-08T07:00:22.804Z,3175.00
2023-05-08T07:01:22.831Z,3186.00
2023-05-08T07:02:22.906Z,3181.00
2023-05-08T07:03:22.869Z,3202.00
2023-05-08T07:04:23.000Z,3209.00
2023-05-08T07:05:22.940Z,3216.00
2023-05-08T07:06:22.938Z,3226.00
2023-05-08T07:07:22.953Z,3221.00
2023-05-08T07:08:22.965Z,3237.00
2023-05-08T07:09:22.981Z,3263.00
2023-05-08T07:10:23.100Z,3285.00
2023-05-08T07:11:23.046Z,3256.00
2023-05-08T07:12:23.046Z,3314.00
2023-05-08T07:13:23.070Z,3354.00
2023-05-08T07:14:23.062Z,3384.00
2023-05-08T07:15:26.629Z,3453.00
2023-05-08T07:16:23.113Z,3456.00
2023-05-08T07:17:23.032Z,3462.00
2023-05-08T07:18:23.017Z,3467.00
2023-05-08T07:19:23.021Z,3463.00
2023-05-08T07:20:23.020Z,3420.00
2023-05-08T07:21:23.026Z,3399.00
2023-05-08T07:22:23.069Z,3420.00
2023-05-08T07:23:22.989Z,3440.00
2023-05-08T07:24:22.988Z,3424.00
2023-05-08T07:25:22.999Z,3403.00
2023-05-08T07:26:22.989Z,3281.00
2023-05-08T07:27:22.959Z,3307.00
2023-05-08T07:28:22.965Z,3290.00
2023-05-08T07:29:22.951Z,3241.00
2023-05-08T07:30:22.976Z,2992.00
2023-05-08T07:31:22.970Z,2692.00
2023-05-08T07:32:22.964Z,2537.00
2023-05-08T07:33:22.966Z,2497.00
2023-05-08T07:34:22.924Z,2440.00
2023-05-08T07:35:22.906Z,2432.00
2023-05-08T07:36:22.928Z,2395.00
2023-05-08T07:37:22.896Z,2400.00
2023-05-08T07:38:22.882Z,2350.00
2023-05-08T07:39:22.885Z,2295.00
2023-05-08T07:40:23.313Z,2303.00
2023-05-08T07:41:22.868Z,2265.00
2023-05-08T07:42:22.868Z,2245.00
2023-05-08T07:43:23.290Z,2261.00
2023-05-08T07:44:22.855Z,2306.00
2023-05-08T07:45:22.844Z,2358.00
2023-05-08T07:46:22.851Z,2374.00
2023-05-08T07:47:22.864Z,2441.00
2023-05-08T07:48:23.282Z,2482.00
2023-05-08T07:49:22.799Z,2418.00
2023-05-08T07:50:22.808Z,2440.00
2023-05-08T07:51:22.817Z,2369.00
2023-05-08T07:52:22.786Z,2410.00
2023-05-08T07:53:22.804Z,2462.00
2023-05-08T07:54:22.789Z,2470.00
2023-05-08T07:55:22.770Z,2445.00
2023-05-08T07:56:22.748Z,2504.00
2023-05-08T07:57:22.753Z,2537.00
2023-05-08T07:58:23.979Z,2436.00
2023-05-08T07:59:22.725Z,2354.00
2023-05-08T08:00:22.738Z,2346.00
2023-05-08T08:01:22.729Z,2392.00
2023-05-08T08:02:22.778Z,2408.00
2023-05-08T08:03:22.810Z,2456.00
2023-05-08T08:04:22.713Z,2452.00
2023-05-08T08:05:22.800Z,2537.00
2023-05-08T08:06:22.693Z,2471.00
2023-05-08T08:07:22.724Z,2463.00
2023-05-08T08:08:22.805Z,2469.00
2023-05-08T08:09:22.836Z,2529.00
2023-05-08T08:10:22.938Z,2478.00
2023-05-08T08:11:22.939Z,2464.00
2023-05-08T08:12:22.996Z,2526.00
2023-05-08T08:13:23.386Z,2440.00
2023-05-08T08:14:23.231Z,2491.00
2023-05-08T08:15:23.177Z,2493.00
2023-05-08T08:16:23.242Z,2558.00
2023-05-08T08:17:23.358Z,2590.00
2023-05-08T08:18:23.791Z,2645.00
2023-05-08T08:19:23.409Z,2695.00
2023-05-08T08:20:23.592Z,2750.00
2023-05-08T08:21:23.514Z,2751.00
2023-05-08T08:22:23.545Z,2751.00
2023-05-08T08:23:23.613Z,2587.00
2023-05-08T08:24:23.672Z,2508.00
2023-05-08T08:25:23.808Z,2364.00
2023-05-08T08:26:23.781Z,2541.00
2023-05-08T08:27:23.782Z,2456.00
2023-05-08T08:28:23.786Z,2325.00
2023-05-08T08:29:23.803Z,2269.00
2023-05-08T08:30:23.857Z,2163.00
2023-05-08T08:31:23.866Z,2190.00
2023-05-08T08:32:23.847Z,2162.00
2023-05-08T08:33:23.855Z,2157.00
2023-05-08T08:34:23.877Z,2247.00
2023-05-08T08:35:23.925Z,2276.00
2023-05-08T08:36:23.960Z,2323.00
2023-05-08T08:37:23.981Z,2366.00
2023-05-08T08:38:24.303Z,2443.00
2023-05-08T08:39:24.055Z,2531.00
2023-05-08T08:40:24.012Z,2589.00
2023-05-08T08:41:24.011Z,2680.00
2023-05-08T08:42:24.024Z,2771.00
2023-05-08T08:43:24.300Z,2830.00
2023-05-08T08:44:24.097Z,2894.00
2023-05-08T08:45:24.182Z,2925.00
2023-05-08T08:46:24.341Z,2963.00
2023-05-08T08:47:24.301Z,3015.00
2023-05-08T08:48:24.320Z,3037.00
2023-05-08T08:49:24.390Z,3044.00
2023-05-08T08:50:24.416Z,3065.00
2023-05-08T08:51:24.442Z,3072.00
2023-05-08T08:52:24.476Z,3135.00
2023-05-08T08:53:24.557Z,3135.00
2023-05-08T08:54:24.559Z,3106.00
2023-05-08T08:55:24.607Z,3086.00
2023-05-08T08:56:24.604Z,3124.00
2023-05-08T08:57:24.650Z,3073.00
2023-05-08T08:58:24.671Z,3014.00
2023-05-08T08:59:24.717Z,2854.00
2023-05-08T09:00:24.723Z,2404.00
2023-05-08T09:01:24.874Z,2149.00
2023-05-08T09:02:24.991Z,2137.00
2023-05-08T09:03:24.992Z,2176.00
2023-05-08T09:04:25.015Z,2241.00
2023-05-08T09:05:25.035Z,2305.00
2023-05-08T09:06:25.085Z,2431.00
2023-05-08T09:07:25.139Z,2522.00
2023-05-08T09:08:25.221Z,2633.00
2023-05-08T09:09:25.269Z,2699.00
2023-05-08T09:10:25.322Z,2732.00
2023-05-08T09:11:25.370Z,2796.00
2023-05-08T09:12:25.409Z,2846.00
2023-05-08T09:13:25.542Z,2810.00
2023-05-08T09:14:25.476Z,2888.00
2023-05-08T09:15:25.528Z,2944.00
2023-05-08T09:16:25.585Z,2986.00
2023-05-08T09:17:25.633Z,3002.00
2023-05-08T09:18:25.578Z,3033.00
2023-05-08T09:19:28.083Z,2975.00
2023-05-08T09:20:25.582Z,3029.00
2023-05-08T09:21:25.561Z,3069.00
2023-05-08T09:22:25.558Z,3081.00
2023-05-08T09:23:25.545Z,3086.00
2023-05-08T09:24:25.567Z,3111.00
2023-05-08T09:25:25.533Z,3137.00
2023-05-08T09:26:25.537Z,3137.00
2023-05-08T09:27:25.540Z,3123.00
2023-05-08T09:28:25.857Z,3094.00
2023-05-08T09:29:25.540Z,3101.00
2023-05-08T09:30:25.502Z,3050.00
2023-05-08T09:31:25.511Z,3085.00
2023-05-08T09:32:25.531Z,3090.00
2023-05-08T09:33:25.848Z,3125.00
2023-05-08T09:34:25.623Z,3183.00
2023-05-08T09:35:25.478Z,3197.00
2023-05-08T09:36:25.456Z,3210.00
2023-05-08T09:37:25.462Z,3220.00
2023-05-08T09:38:25.841Z,3234.00
2023-05-08T09:39:25.437Z,3234.00
2023-05-08T09:40:25.453Z,3245.00
2023-05-08T09:41:25.422Z,3237.00
2023-05-08T09:42:25.429Z,3266.00
2023-05-08T09:43:25.407Z,3259.00
2023-05-08T09:44:25.399Z,3259.00
2023-05-08T09:45:25.416Z,3265.00
2023-05-08T09:46:25.545Z,3262.00
2023-05-08T09:47:25.505Z,3265.00
2023-05-08T09:48:25.398Z,3243.00
2023-05-08T09:49:25.360Z,3240.00
2023-05-08T09:50:25.443Z,3251.00
2023-05-08T09:51:25.379Z,3233.00
2023-05-08T09:52:25.367Z,3244.00
2023-05-08T09:53:25.338Z,3231.00
2023-05-08T09:54:25.336Z,3246.00
2023-05-08T09:55:25.322Z,3244.00
2023-05-08T09:56:25.324Z,3245.00
2023-05-08T09:57:25.331Z,3256.00
2023-05-08T09:58:25.313Z,3250.00
2023-05-08T09:59:25.308Z,3256.00
2023-05-08T10:00:25.304Z,3254.00
2023-05-08T10:01:25.333Z,3232.00
2023-05-08T10:02:25.303Z,3189.00
2023-05-08T10:03:25.387Z,3107.00
2023-05-08T10:04:25.282Z,2964.00
2023-05-08T10:05:25.400Z,2942.00
2023-05-08T10:06:25.435Z,2690.00
2023-05-08T10:07:25.261Z,2723.00
2023-05-08T10:08:25.229Z,2418.00
2023-05-08T10:09:26.172Z,2170.00
2023-05-08T10:10:25.253Z,2137.00
2023-05-08T10:11:25.228Z,2190.00
2023-05-08T10:12:25.233Z,2268.00
2023-05-08T10:13:25.364Z,2308.00
2023-05-08T10:14:25.201Z,2405.00
2023-05-08T10:15:25.194Z,2520.00
2023-05-08T10:16:25.195Z,2613.00
2023-05-08T10:17:25.221Z,2710.00
2023-05-08T10:18:25.158Z,2748.00
2023-05-08T10:19:25.193Z,2800.00
2023-05-08T10:20:25.204Z,2850.00
2023-05-08T10:21:25.335Z,2822.00
2023-05-08T10:22:25.269Z,2815.00
2023-05-08T10:23:25.191Z,2808.00
2023-05-08T10:24:25.182Z,2840.00
2023-05-08T10:25:25.187Z,2787.00
2023-05-08T10:26:25.214Z,2834.00
2023-05-08T10:27:25.240Z,2766.00
2023-05-08T10:28:25.348Z,2464.00
2023-05-08T10:29:25.258Z,2260.00
2023-05-08T10:30:25.272Z,2303.00
2023-05-08T10:31:25.294Z,2439.00
2023-05-08T10:32:25.364Z,2510.00
2023-05-08T10:33:25.350Z,2591.00
2023-05-08T10:34:25.242Z,2661.00
2023-05-08T10:35:25.237Z,2717.00
2023-05-08T10:36:25.236Z,2773.00
2023-05-08T10:37:25.215Z,2736.00
2023-05-08T10:38:25.306Z,2254.00
2023-05-08T10:39:25.262Z,2057.00
2023-05-08T10:40:25.221Z,1919.00
2023-05-08T10:41:25.267Z,1730.00
2023-05-08T10:42:25.265Z,1679.00
2023-05-08T10:43:25.281Z,1439.00
2023-05-08T10:44:25.312Z,1288.00
2023-05-08T10:45:25.354Z,1291.00
2023-05-08T10:46:25.430Z,1227.00
2023-05-08T10:47:25.467Z,1078.00
2023-05-08T10:48:25.463Z,1018.00
2023-05-08T10:49:25.492Z,960.00
2023-05-08T10:50:25.549Z,899.00
2023-05-08T10:51:25.582Z,731.00
2023-05-08T10:52:25.625Z,593.00
2023-05-08T10:53:25.704Z,573.00
2023-05-08T10:54:27.485Z,601.00
2023-05-08T10:55:25.804Z,637.00
2023-05-08T10:56:25.869Z,629.00
2023-05-08T10:57:25.917Z,647.00
2023-05-08T10:58:25.977Z,625.00
2023-05-08T10:59:26.054Z,562.00
2023-05-08T11:00:26.086Z,522.00
2023-05-08T11:01:26.210Z,538.00
2023-05-08T11:02:26.236Z,585.00
2023-05-08T11:03:32.150Z,634.00
2023-05-08T11:04:27.230Z,635.00
2023-05-08T11:05:26.168Z,642.00
2023-05-08T11:06:26.184Z,648.00
2023-05-08T11:07:26.154Z,660.00
2023-05-08T11:08:26.162Z,764.00
2023-05-08T11:09:26.148Z,700.00
2023-05-08T11:10:26.132Z,763.00
2023-05-08T11:11:26.145Z,742.00
2023-05-08T11:12:26.151Z,728.00
2023-05-08T11:13:26.189Z,747.00
2023-05-08T11:14:26.190Z,858.00
2023-05-08T11:15:26.214Z,917.00
2023-05-08T11:16:26.311Z,984.00
2023-05-08T11:17:26.383Z,639.00
2023-05-08T11:18:28.084Z,472.00
2023-05-08T11:19:27.339Z,411.00
2023-05-08T11:20:26.314Z,400.00
2023-05-08T11:21:26.389Z,400.00
2023-05-08T11:22:26.310Z,400.00
2023-05-08T11:23:26.311Z,400.00
2023-05-08T11:24:26.274Z,407.00
2023-05-08T11:25:26.266Z,461.00
2023-05-08T11:26:26.270Z,508.00
2023-05-08T11:27:26.265Z,511.00
2023-05-08T11:28:26.283Z,519.00
2023-05-08T11:29:26.235Z,520.00
2023-05-08T11:30:26.233Z,522.00
2023-05-08T11:31:26.305Z,510.00
2023-05-08T11:32:26.315Z,505.00
2023-05-08T11:33:26.382Z,524.00
2023-05-08T11:34:26.423Z,522.00
2023-05-08T11:35:26.496Z,544.00
2023-05-08T11:36:26.563Z,548.00
2023-05-08T11:37:26.636Z,529.00
2023-05-08T11:38:26.694Z,534.00
2023-05-08T11:39:26.724Z,530.00
2023-05-08T11:40:26.800Z,564.00
2023-05-08T11:41:26.835Z,561.00
2023-05-08T11:42:26.990Z,558.00
2023-05-08T11:43:26.975Z,563.00
2023-05-08T11:44:27.003Z,576.00
2023-05-08T11:45:27.068Z,577.00
2023-05-08T11:46:27.144Z,589.00
2023-05-08T11:47:27.188Z,594.00
2023-05-08T11:48:27.235Z,611.00
2023-05-08T11:49:29.785Z,632.00
2023-05-08T11:50:27.284Z,625.00
2023-05-08T11:51:27.250Z,614.00
2023-05-08T11:52:27.246Z,623.00
2023-05-08T11:53:27.255Z,629.00
2023-05-08T11:54:27.228Z,621.00
2023-05-08T11:55:27.235Z,607.00
2023-05-08T11:56:27.248Z,602.00
2023-05-08T11:57:27.222Z,603.00
2023-05-08T11:58:27.212Z,604.00
2023-05-08T11:59:27.219Z,603.00
2023-05-08T12:00:27.263Z,604.00
2023-05-08T12:01:27.198Z,599.00
2023-05-08T12:02:27.239Z,596.00
2023-05-08T12:03:27.291Z,582.00
2023-05-08T12:04:27.261Z,558.00
2023-05-08T12:05:27.164Z,541.00
2023-05-08T12:06:27.144Z,513.00
2023-05-08T12:07:27.155Z,508.00
2023-05-08T12:08:27.154Z,505.00